sensor_id;sensor_type;location;lat;lon;timestamp;P1;durP1;ratioP1;P2;durP2;ratioP2
76818;SDS011;65772;51.096;17.006;2023-03-23T00:02:02;19.90;;;11.00;;
76818;SDS011;65772;51.096;17.006;2023-03-23T00:04:31;18.60;;;11.30;;
76818;SDS011;65772;51.096;17.006;2023-03-23T00:07:01;24.20;;;14.80;;
76818;SDS011;65772;51.096;17.006;2023-03-23T00:09:30;25.10;;;13.30;;
76818;SDS011;65772;51.096;17.006;2023-03-23T00:12:01;20.10;;;11.10;;
76818;SDS011;65772;51.096;17.006;2023-03-23T00:14:32;20.10;;;11.00;;
76818;SDS011;65772;51.096;17.006;2023-03-23T00:17:10;17.10;;;10.10;;
76818;SDS011;65772;51.096;17.006;2023-03-23T00:19:40;19.90;;;10.70;;
76818;SDS011;65772;51.096;17.006;2023-03-23T00:22:18;17.20;;;10.40;;
76818;SDS011;65772;51.096;17.006;2023-03-23T00:24:48;17.10;;;10.40;;
76818;SDS011;65772;51.096;17.006;2023-03-23T00:27:18;19.90;;;10.60;;
76818;SDS011;65772;51.096;17.006;2023-03-23T00:29:49;18.20;;;10.40;;
76818;SDS011;65772;51.096;17.006;2023-03-23T00:32:19;19.70;;;9.30;;
76818;SDS011;65772;51.096;17.006;2023-03-23T00:34:55;18.50;;;10.60;;
76818;SDS011;65772;51.096;17.006;2023-03-23T00:37:27;17.90;;;9.90;;
76818;SDS011;65772;51.096;17.006;2023-03-23T00:39:56;15.80;;;10.20;;
76818;SDS011;65772;51.096;17.006;2023-03-23T00:42:27;17.20;;;9.20;;
76818;SDS011;65772;51.096;17.006;2023-03-23T00:44:57;18.90;;;10.80;;
76818;SDS011;65772;51.096;17.006;2023-03-23T00:47:27;17.40;;;9.80;;
76818;SDS011;65772;51.096;17.006;2023-03-23T00:49:58;20.90;;;10.90;;
76818;SDS011;65772;51.096;17.006;2023-03-23T00:52:27;19.70;;;11.10;;
76818;SDS011;65772;51.096;17.006;2023-03-23T00:54:56;17.90;;;10.30;;
76818;SDS011;65772;51.096;17.006;2023-03-23T00:57:26;17.90;;;10.70;;
76818;SDS011;65772;51.096;17.006;2023-03-23T00:59:55;20.30;;;10.50;;
76818;SDS011;65772;51.096;17.006;2023-03-23T01:02:25;19.00;;;10.00;;
76818;SDS011;65772;51.096;17.006;2023-03-23T01:04:54;16.90;;;9.70;;
76818;SDS011;65772;51.096;17.006;2023-03-23T01:07:24;18.00;;;10.00;;
76818;SDS011;65772;51.096;17.006;2023-03-23T01:09:54;16.10;;;9.70;;
76818;SDS011;65772;51.096;17.006;2023-03-23T01:12:24;15.20;;;10.00;;
76818;SDS011;65772;51.096;17.006;2023-03-23T01:14:53;16.00;;;8.80;;
76818;SDS011;65772;51.096;17.006;2023-03-23T01:17:22;16.70;;;8.90;;
76818;SDS011;65772;51.096;17.006;2023-03-23T01:19:52;14.30;;;8.30;;
76818;SDS011;65772;51.096;17.006;2023-03-23T01:22:22;15.70;;;9.10;;
76818;SDS011;65772;51.096;17.006;2023-03-23T01:24:52;15.00;;;8.60;;
76818;SDS011;65772;51.096;17.006;2023-03-23T01:27:22;14.40;;;8.20;;
76818;SDS011;65772;51.096;17.006;2023-03-23T01:29:51;15.40;;;7.30;;
76818;SDS011;65772;51.096;17.006;2023-03-23T01:32:21;17.60;;;8.50;;
76818;SDS011;65772;51.096;17.006;2023-03-23T01:34:50;14.60;;;7.90;;
76818;SDS011;65772;51.096;17.006;2023-03-23T01:37:20;14.90;;;8.30;;
76818;SDS011;65772;51.096;17.006;2023-03-23T01:39:54;16.30;;;8.10;;
76818;SDS011;65772;51.096;17.006;2023-03-23T01:42:24;16.60;;;9.00;;
76818;SDS011;65772;51.096;17.006;2023-03-23T01:47:54;15.90;;;8.00;;
76818;SDS011;65772;51.096;17.006;2023-03-23T01:50:28;12.90;;;7.80;;
76818;SDS011;65772;51.096;17.006;2023-03-23T01:53:03;13.30;;;7.60;;
76818;SDS011;65772;51.096;17.006;2023-03-23T01:55:37;14.50;;;7.30;;
76818;SDS011;65772;51.096;17.006;2023-03-23T01:58:09;12.90;;;7.10;;
76818;SDS011;65772;51.096;17.006;2023-03-23T02:00:40;13.80;;;7.70;;
76818;SDS011;65772;51.096;17.006;2023-03-23T02:03:10;12.40;;;7.30;;
76818;SDS011;65772;51.096;17.006;2023-03-23T02:05:42;14.40;;;7.60;;
76818;SDS011;65772;51.096;17.006;2023-03-23T02:08:20;11.10;;;6.60;;
76818;SDS011;65772;51.096;17.006;2023-03-23T02:10:51;13.00;;;7.50;;
76818;SDS011;65772;51.096;17.006;2023-03-23T02:13:20;13.00;;;7.40;;
76818;SDS011;65772;51.096;17.006;2023-03-23T02:15:53;12.40;;;7.50;;
76818;SDS011;65772;51.096;17.006;2023-03-23T02:18:37;12.30;;;7.10;;
76818;SDS011;65772;51.096;17.006;2023-03-23T02:21:19;17.60;;;8.10;;
76818;SDS011;65772;51.096;17.006;2023-03-23T02:24:03;13.70;;;7.30;;
76818;SDS011;65772;51.096;17.006;2023-03-23T02:26:48;12.70;;;6.70;;
76818;SDS011;65772;51.096;17.006;2023-03-23T02:32:54;14.50;;;6.70;;
76818;SDS011;65772;51.096;17.006;2023-03-23T02:35:54;11.40;;;7.20;;
76818;SDS011;65772;51.096;17.006;2023-03-23T02:38:30;11.80;;;6.70;;
76818;SDS011;65772;51.096;17.006;2023-03-23T02:41:04;12.20;;;7.00;;
76818;SDS011;65772;51.096;17.006;2023-03-23T02:43:36;9.60;;;6.10;;
76818;SDS011;65772;51.096;17.006;2023-03-23T02:46:11;12.00;;;6.90;;
76818;SDS011;65772;51.096;17.006;2023-03-23T02:48:41;11.60;;;6.80;;
76818;SDS011;65772;51.096;17.006;2023-03-23T02:51:16;11.80;;;6.60;;
76818;SDS011;65772;51.096;17.006;2023-03-23T02:53:47;13.50;;;6.50;;
76818;SDS011;65772;51.096;17.006;2023-03-23T02:56:21;10.40;;;6.20;;
76818;SDS011;65772;51.096;17.006;2023-03-23T02:58:52;10.90;;;6.20;;
76818;SDS011;65772;51.096;17.006;2023-03-23T03:04:20;11.50;;;6.10;;
76818;SDS011;65772;51.096;17.006;2023-03-23T03:07:04;13.60;;;6.50;;
76818;SDS011;65772;51.096;17.006;2023-03-23T03:09:44;11.50;;;6.50;;
76818;SDS011;65772;51.096;17.006;2023-03-23T03:12:20;11.20;;;6.90;;
76818;SDS011;65772;51.096;17.006;2023-03-23T03:14:59;9.70;;;6.20;;
76818;SDS011;65772;51.096;17.006;2023-03-23T03:17:40;11.00;;;5.70;;
76818;SDS011;65772;51.096;17.006;2023-03-23T03:20:14;9.10;;;5.50;;
76818;SDS011;65772;51.096;17.006;2023-03-23T03:25:14;9.50;;;5.40;;
76818;SDS011;65772;51.096;17.006;2023-03-23T03:27:45;9.80;;;5.70;;
76818;SDS011;65772;51.096;17.006;2023-03-23T03:30:26;9.60;;;5.30;;
76818;SDS011;65772;51.096;17.006;2023-03-23T03:33:01;9.20;;;5.70;;
76818;SDS011;65772;51.096;17.006;2023-03-23T03:35:31;7.90;;;5.10;;
76818;SDS011;65772;51.096;17.006;2023-03-23T03:38:06;9.30;;;5.00;;
76818;SDS011;65772;51.096;17.006;2023-03-23T03:40:38;8.90;;;5.20;;
76818;SDS011;65772;51.096;17.006;2023-03-23T03:43:08;8.90;;;5.80;;
76818;SDS011;65772;51.096;17.006;2023-03-23T03:45:38;8.90;;;4.90;;
76818;SDS011;65772;51.096;17.006;2023-03-23T03:48:08;9.90;;;5.30;;
76818;SDS011;65772;51.096;17.006;2023-03-23T03:50:38;9.10;;;5.20;;
76818;SDS011;65772;51.096;17.006;2023-03-23T03:53:07;9.20;;;5.00;;
76818;SDS011;65772;51.096;17.006;2023-03-23T03:55:38;9.80;;;6.20;;
76818;SDS011;65772;51.096;17.006;2023-03-23T03:58:13;9.60;;;4.90;;
76818;SDS011;65772;51.096;17.006;2023-03-23T04:01:01;11.50;;;5.40;;
76818;SDS011;65772;51.096;17.006;2023-03-23T04:03:35;8.60;;;5.00;;
76818;SDS011;65772;51.096;17.006;2023-03-23T04:06:10;10.20;;;5.20;;
76818;SDS011;65772;51.096;17.006;2023-03-23T04:08:40;10.80;;;5.50;;
76818;SDS011;65772;51.096;17.006;2023-03-23T04:11:12;13.00;;;5.50;;
76818;SDS011;65772;51.096;17.006;2023-03-23T04:13:42;8.40;;;4.90;;
76818;SDS011;65772;51.096;17.006;2023-03-23T04:16:23;11.70;;;4.90;;
76818;SDS011;65772;51.096;17.006;2023-03-23T04:18:56;8.80;;;5.20;;
76818;SDS011;65772;51.096;17.006;2023-03-23T04:21:27;9.60;;;5.00;;
76818;SDS011;65772;51.096;17.006;2023-03-23T04:23:56;12.40;;;5.30;;
76818;SDS011;65772;51.096;17.006;2023-03-23T04:26:27;8.80;;;4.90;;
76818;SDS011;65772;51.096;17.006;2023-03-23T04:29:01;9.40;;;5.40;;
76818;SDS011;65772;51.096;17.006;2023-03-23T04:31:35;8.80;;;4.80;;
76818;SDS011;65772;51.096;17.006;2023-03-23T04:34:20;9.40;;;4.80;;
76818;SDS011;65772;51.096;17.006;2023-03-23T04:36:51;11.30;;;4.90;;
76818;SDS011;65772;51.096;17.006;2023-03-23T04:39:24;11.20;;;5.40;;
76818;SDS011;65772;51.096;17.006;2023-03-23T04:41:56;10.70;;;4.90;;
76818;SDS011;65772;51.096;17.006;2023-03-23T04:44:46;8.10;;;5.10;;
76818;SDS011;65772;51.096;17.006;2023-03-23T04:47:23;8.20;;;4.30;;
76818;SDS011;65772;51.096;17.006;2023-03-23T04:49:57;9.10;;;4.50;;
76818;SDS011;65772;51.096;17.006;2023-03-23T04:52:37;7.70;;;4.50;;
76818;SDS011;65772;51.096;17.006;2023-03-23T04:55:12;8.30;;;4.90;;
76818;SDS011;65772;51.096;17.006;2023-03-23T04:57:44;7.50;;;4.80;;
76818;SDS011;65772;51.096;17.006;2023-03-23T05:00:36;8.50;;;4.60;;
76818;SDS011;65772;51.096;17.006;2023-03-23T05:03:05;6.60;;;4.40;;
76818;SDS011;65772;51.096;17.006;2023-03-23T05:05:36;7.90;;;4.40;;
76818;SDS011;65772;51.096;17.006;2023-03-23T05:08:07;9.50;;;4.30;;
76818;SDS011;65772;51.096;17.006;2023-03-23T05:10:38;9.00;;;4.40;;
76818;SDS011;65772;51.096;17.006;2023-03-23T05:13:10;7.90;;;4.10;;
76818;SDS011;65772;51.096;17.006;2023-03-23T05:15:40;6.30;;;4.00;;
76818;SDS011;65772;51.096;17.006;2023-03-23T05:18:09;8.70;;;5.00;;
76818;SDS011;65772;51.096;17.006;2023-03-23T05:20:39;7.80;;;4.30;;
76818;SDS011;65772;51.096;17.006;2023-03-23T05:23:14;9.30;;;4.90;;
76818;SDS011;65772;51.096;17.006;2023-03-23T05:25:53;7.80;;;4.70;;
76818;SDS011;65772;51.096;17.006;2023-03-23T05:28:33;9.20;;;4.80;;
76818;SDS011;65772;51.096;17.006;2023-03-23T05:31:16;9.80;;;4.70;;
76818;SDS011;65772;51.096;17.006;2023-03-23T05:33:46;8.40;;;4.80;;
76818;SDS011;65772;51.096;17.006;2023-03-23T05:36:25;7.70;;;4.70;;
76818;SDS011;65772;51.096;17.006;2023-03-23T05:39:14;10.20;;;4.90;;
76818;SDS011;65772;51.096;17.006;2023-03-23T05:41:58;8.10;;;4.70;;
76818;SDS011;65772;51.096;17.006;2023-03-23T05:44:36;9.20;;;4.60;;
76818;SDS011;65772;51.096;17.006;2023-03-23T05:47:05;6.90;;;4.40;;
76818;SDS011;65772;51.096;17.006;2023-03-23T05:49:36;8.40;;;4.70;;
76818;SDS011;65772;51.096;17.006;2023-03-23T05:52:06;8.90;;;4.20;;
76818;SDS011;65772;51.096;17.006;2023-03-23T05:54:36;7.20;;;3.90;;
76818;SDS011;65772;51.096;17.006;2023-03-23T05:57:05;9.60;;;5.80;;
76818;SDS011;65772;51.096;17.006;2023-03-23T05:59:45;7.60;;;4.40;;
76818;SDS011;65772;51.096;17.006;2023-03-23T06:02:20;8.30;;;4.10;;
76818;SDS011;65772;51.096;17.006;2023-03-23T06:04:51;7.60;;;4.30;;
76818;SDS011;65772;51.096;17.006;2023-03-23T06:07:28;8.10;;;4.40;;
76818;SDS011;65772;51.096;17.006;2023-03-23T06:10:03;6.30;;;4.10;;
76818;SDS011;65772;51.096;17.006;2023-03-23T06:12:39;9.50;;;3.70;;
76818;SDS011;65772;51.096;17.006;2023-03-23T06:15:17;7.30;;;4.30;;
76818;SDS011;65772;51.096;17.006;2023-03-23T06:18:02;6.30;;;3.80;;
76818;SDS011;65772;51.096;17.006;2023-03-23T06:20:40;8.50;;;4.20;;
76818;SDS011;65772;51.096;17.006;2023-03-23T06:23:39;6.90;;;3.80;;
76818;SDS011;65772;51.096;17.006;2023-03-23T06:26:10;8.80;;;4.20;;
76818;SDS011;65772;51.096;17.006;2023-03-23T06:28:43;7.40;;;3.90;;
76818;SDS011;65772;51.096;17.006;2023-03-23T06:31:12;7.80;;;4.40;;
76818;SDS011;65772;51.096;17.006;2023-03-23T06:33:44;7.70;;;3.50;;
76818;SDS011;65772;51.096;17.006;2023-03-23T06:36:34;6.30;;;3.60;;
76818;SDS011;65772;51.096;17.006;2023-03-23T06:39:23;9.30;;;3.80;;
76818;SDS011;65772;51.096;17.006;2023-03-23T06:42:15;7.60;;;3.70;;
76818;SDS011;65772;51.096;17.006;2023-03-23T06:44:49;5.60;;;3.30;;
76818;SDS011;65772;51.096;17.006;2023-03-23T06:47:19;5.90;;;3.20;;
76818;SDS011;65772;51.096;17.006;2023-03-23T06:49:50;6.80;;;3.60;;
76818;SDS011;65772;51.096;17.006;2023-03-23T06:52:25;8.00;;;3.60;;
76818;SDS011;65772;51.096;17.006;2023-03-23T06:54:54;7.50;;;4.00;;
76818;SDS011;65772;51.096;17.006;2023-03-23T06:57:24;6.60;;;3.60;;
76818;SDS011;65772;51.096;17.006;2023-03-23T06:59:55;8.40;;;3.60;;
76818;SDS011;65772;51.096;17.006;2023-03-23T07:02:24;6.70;;;3.50;;
76818;SDS011;65772;51.096;17.006;2023-03-23T07:04:54;7.30;;;3.50;;
76818;SDS011;65772;51.096;17.006;2023-03-23T07:07:25;7.10;;;3.80;;
76818;SDS011;65772;51.096;17.006;2023-03-23T07:10:09;7.20;;;3.70;;
76818;SDS011;65772;51.096;17.006;2023-03-23T07:12:39;7.70;;;3.70;;
76818;SDS011;65772;51.096;17.006;2023-03-23T07:15:10;7.30;;;3.50;;
76818;SDS011;65772;51.096;17.006;2023-03-23T07:17:41;7.20;;;4.00;;
76818;SDS011;65772;51.096;17.006;2023-03-23T07:20:17;6.40;;;3.60;;
76818;SDS011;65772;51.096;17.006;2023-03-23T07:22:47;8.20;;;4.20;;
76818;SDS011;65772;51.096;17.006;2023-03-23T07:25:35;7.50;;;3.80;;
76818;SDS011;65772;51.096;17.006;2023-03-23T07:28:06;8.30;;;3.70;;
76818;SDS011;65772;51.096;17.006;2023-03-23T07:30:37;6.10;;;3.80;;
76818;SDS011;65772;51.096;17.006;2023-03-23T07:33:07;9.80;;;4.60;;
76818;SDS011;65772;51.096;17.006;2023-03-23T07:35:37;7.70;;;3.90;;
76818;SDS011;65772;51.096;17.006;2023-03-23T07:38:10;7.70;;;3.70;;
76818;SDS011;65772;51.096;17.006;2023-03-23T07:40:40;7.30;;;3.40;;
76818;SDS011;65772;51.096;17.006;2023-03-23T07:43:13;7.30;;;3.60;;
76818;SDS011;65772;51.096;17.006;2023-03-23T07:46:01;8.90;;;3.80;;
76818;SDS011;65772;51.096;17.006;2023-03-23T07:48:45;9.20;;;4.00;;
76818;SDS011;65772;51.096;17.006;2023-03-23T07:51:16;7.30;;;4.00;;
76818;SDS011;65772;51.096;17.006;2023-03-23T07:56:35;6.80;;;3.90;;
76818;SDS011;65772;51.096;17.006;2023-03-23T07:59:20;9.20;;;4.10;;
76818;SDS011;65772;51.096;17.006;2023-03-23T08:01:50;6.60;;;3.90;;
76818;SDS011;65772;51.096;17.006;2023-03-23T08:04:25;9.60;;;4.40;;
76818;SDS011;65772;51.096;17.006;2023-03-23T08:07:18;9.60;;;4.10;;
76818;SDS011;65772;51.096;17.006;2023-03-23T08:09:57;10.50;;;4.20;;
76818;SDS011;65772;51.096;17.006;2023-03-23T08:12:50;8.00;;;4.60;;
76818;SDS011;65772;51.096;17.006;2023-03-23T08:15:47;9.10;;;4.60;;
76818;SDS011;65772;51.096;17.006;2023-03-23T08:18:49;7.60;;;4.10;;
76818;SDS011;65772;51.096;17.006;2023-03-23T08:21:35;8.70;;;4.40;;
76818;SDS011;65772;51.096;17.006;2023-03-23T08:24:10;9.10;;;4.40;;
76818;SDS011;65772;51.096;17.006;2023-03-23T08:26:51;9.40;;;4.40;;
76818;SDS011;65772;51.096;17.006;2023-03-23T08:29:34;7.90;;;4.40;;
76818;SDS011;65772;51.096;17.006;2023-03-23T08:32:15;7.70;;;4.20;;
76818;SDS011;65772;51.096;17.006;2023-03-23T08:34:59;9.20;;;3.90;;
76818;SDS011;65772;51.096;17.006;2023-03-23T08:37:55;7.30;;;2.90;;
76818;SDS011;65772;51.096;17.006;2023-03-23T08:40:58;6.00;;;2.80;;
76818;SDS011;65772;51.096;17.006;2023-03-23T08:43:37;4.80;;;2.60;;
76818;SDS011;65772;51.096;17.006;2023-03-23T08:46:35;5.00;;;2.80;;
76818;SDS011;65772;51.096;17.006;2023-03-23T08:49:05;7.70;;;3.10;;
76818;SDS011;65772;51.096;17.006;2023-03-23T08:52:13;10.50;;;2.70;;
76818;SDS011;65772;51.096;17.006;2023-03-23T08:55:09;5.90;;;2.70;;
76818;SDS011;65772;51.096;17.006;2023-03-23T08:57:58;6.10;;;2.90;;
76818;SDS011;65772;51.096;17.006;2023-03-23T09:00:48;6.10;;;2.70;;
76818;SDS011;65772;51.096;17.006;2023-03-23T09:03:50;6.00;;;2.90;;
76818;SDS011;65772;51.096;17.006;2023-03-23T09:06:49;6.30;;;2.80;;
76818;SDS011;65772;51.096;17.006;2023-03-23T09:09:18;8.10;;;2.40;;
76818;SDS011;65772;51.096;17.006;2023-03-23T09:11:48;3.80;;;2.30;;
76818;SDS011;65772;51.096;17.006;2023-03-23T09:14:17;4.70;;;2.70;;
76818;SDS011;65772;51.096;17.006;2023-03-23T09:16:47;7.10;;;2.50;;
76818;SDS011;65772;51.096;17.006;2023-03-23T09:19:16;5.50;;;2.60;;
76818;SDS011;65772;51.096;17.006;2023-03-23T09:21:46;6.00;;;3.00;;
76818;SDS011;65772;51.096;17.006;2023-03-23T09:24:17;4.80;;;2.60;;
76818;SDS011;65772;51.096;17.006;2023-03-23T09:26:47;5.50;;;2.70;;
76818;SDS011;65772;51.096;17.006;2023-03-23T09:29:16;4.80;;;2.40;;
76818;SDS011;65772;51.096;17.006;2023-03-23T09:31:47;4.80;;;2.60;;
76818;SDS011;65772;51.096;17.006;2023-03-23T09:34:17;4.30;;;2.50;;
76818;SDS011;65772;51.096;17.006;2023-03-23T09:36:46;6.00;;;3.30;;
76818;SDS011;65772;51.096;17.006;2023-03-23T09:39:15;4.30;;;2.40;;
76818;SDS011;65772;51.096;17.006;2023-03-23T09:41:51;5.30;;;2.50;;
76818;SDS011;65772;51.096;17.006;2023-03-23T09:44:33;6.00;;;2.40;;
76818;SDS011;65772;51.096;17.006;2023-03-23T09:47:14;4.90;;;2.40;;
76818;SDS011;65772;51.096;17.006;2023-03-23T09:49:50;8.30;;;2.50;;
76818;SDS011;65772;51.096;17.006;2023-03-23T09:52:26;5.10;;;2.30;;
76818;SDS011;65772;51.096;17.006;2023-03-23T09:55:10;5.80;;;2.70;;
76818;SDS011;65772;51.096;17.006;2023-03-23T09:57:44;4.60;;;2.60;;
76818;SDS011;65772;51.096;17.006;2023-03-23T10:00:20;5.10;;;2.10;;
76818;SDS011;65772;51.096;17.006;2023-03-23T10:02:58;5.80;;;2.60;;
76818;SDS011;65772;51.096;17.006;2023-03-23T10:05:33;3.70;;;2.10;;
76818;SDS011;65772;51.096;17.006;2023-03-23T10:08:08;4.60;;;2.20;;
76818;SDS011;65772;51.096;17.006;2023-03-23T10:10:42;3.80;;;1.70;;
76818;SDS011;65772;51.096;17.006;2023-03-23T10:13:23;3.60;;;1.60;;
76818;SDS011;65772;51.096;17.006;2023-03-23T10:16:00;5.50;;;2.10;;
76818;SDS011;65772;51.096;17.006;2023-03-23T10:18:35;4.90;;;1.60;;
76818;SDS011;65772;51.096;17.006;2023-03-23T10:21:10;5.50;;;1.90;;
76818;SDS011;65772;51.096;17.006;2023-03-23T10:23:46;7.50;;;1.90;;
76818;SDS011;65772;51.096;17.006;2023-03-23T10:26:25;4.40;;;1.60;;
76818;SDS011;65772;51.096;17.006;2023-03-23T10:29:11;2.70;;;1.30;;
76818;SDS011;65772;51.096;17.006;2023-03-23T10:31:46;6.60;;;1.40;;
76818;SDS011;65772;51.096;17.006;2023-03-23T10:34:22;4.70;;;1.30;;
76818;SDS011;65772;51.096;17.006;2023-03-23T10:36:59;3.10;;;1.20;;
76818;SDS011;65772;51.096;17.006;2023-03-23T10:39:33;3.60;;;1.40;;
76818;SDS011;65772;51.096;17.006;2023-03-23T10:42:12;4.60;;;1.50;;
76818;SDS011;65772;51.096;17.006;2023-03-23T10:44:48;4.90;;;1.20;;
76818;SDS011;65772;51.096;17.006;2023-03-23T10:47:18;4.90;;;1.10;;
76818;SDS011;65772;51.096;17.006;2023-03-23T10:49:48;3.40;;;1.40;;
76818;SDS011;65772;51.096;17.006;2023-03-23T10:52:30;4.40;;;1.50;;
76818;SDS011;65772;51.096;17.006;2023-03-23T10:55:04;4.60;;;1.40;;
76818;SDS011;65772;51.096;17.006;2023-03-23T10:57:36;3.20;;;1.30;;
76818;SDS011;65772;51.096;17.006;2023-03-23T11:00:16;3.90;;;1.50;;
76818;SDS011;65772;51.096;17.006;2023-03-23T11:02:56;3.60;;;1.50;;
76818;SDS011;65772;51.096;17.006;2023-03-23T11:05:32;5.90;;;1.60;;
76818;SDS011;65772;51.096;17.006;2023-03-23T11:08:11;3.20;;;1.70;;
76818;SDS011;65772;51.096;17.006;2023-03-23T11:10:46;4.00;;;1.50;;
76818;SDS011;65772;51.096;17.006;2023-03-23T11:13:18;5.40;;;1.30;;
76818;SDS011;65772;51.096;17.006;2023-03-23T11:15:49;3.50;;;1.30;;
76818;SDS011;65772;51.096;17.006;2023-03-23T11:18:20;5.60;;;1.70;;
76818;SDS011;65772;51.096;17.006;2023-03-23T11:20:52;4.70;;;1.20;;
76818;SDS011;65772;51.096;17.006;2023-03-23T11:23:25;2.30;;;1.00;;
76818;SDS011;65772;51.096;17.006;2023-03-23T11:25:58;3.00;;;1.30;;
76818;SDS011;65772;51.096;17.006;2023-03-23T11:28:37;2.50;;;1.20;;
76818;SDS011;65772;51.096;17.006;2023-03-23T11:31:11;4.30;;;1.40;;
76818;SDS011;65772;51.096;17.006;2023-03-23T11:33:49;5.10;;;1.20;;
76818;SDS011;65772;51.096;17.006;2023-03-23T11:36:28;3.30;;;1.20;;
76818;SDS011;65772;51.096;17.006;2023-03-23T11:39:00;3.60;;;1.30;;
76818;SDS011;65772;51.096;17.006;2023-03-23T11:41:35;3.10;;;1.20;;
76818;SDS011;65772;51.096;17.006;2023-03-23T11:44:10;3.90;;;1.20;;
76818;SDS011;65772;51.096;17.006;2023-03-23T11:46:48;3.60;;;1.40;;
76818;SDS011;65772;51.096;17.006;2023-03-23T11:49:29;2.80;;;1.30;;
76818;SDS011;65772;51.096;17.006;2023-03-23T11:52:09;2.50;;;1.30;;
76818;SDS011;65772;51.096;17.006;2023-03-23T11:54:46;3.40;;;1.40;;
76818;SDS011;65772;51.096;17.006;2023-03-23T11:57:20;2.90;;;1.30;;
76818;SDS011;65772;51.096;17.006;2023-03-23T11:59:51;3.30;;;1.70;;
76818;SDS011;65772;51.096;17.006;2023-03-23T12:02:34;3.40;;;1.50;;
76818;SDS011;65772;51.096;17.006;2023-03-23T12:05:36;4.20;;;1.40;;
76818;SDS011;65772;51.096;17.006;2023-03-23T12:08:22;3.80;;;1.90;;
76818;SDS011;65772;51.096;17.006;2023-03-23T12:11:10;5.00;;;1.70;;
76818;SDS011;65772;51.096;17.006;2023-03-23T12:13:52;4.80;;;1.60;;
76818;SDS011;65772;51.096;17.006;2023-03-23T12:16:41;3.40;;;1.30;;
76818;SDS011;65772;51.096;17.006;2023-03-23T12:19:23;2.90;;;1.60;;
76818;SDS011;65772;51.096;17.006;2023-03-23T12:22:04;3.00;;;1.50;;
76818;SDS011;65772;51.096;17.006;2023-03-23T12:24:42;3.40;;;1.50;;
76818;SDS011;65772;51.096;17.006;2023-03-23T12:27:24;4.90;;;1.50;;
76818;SDS011;65772;51.096;17.006;2023-03-23T12:30:04;3.20;;;1.40;;
76818;SDS011;65772;51.096;17.006;2023-03-23T12:32:49;3.50;;;1.50;;
76818;SDS011;65772;51.096;17.006;2023-03-23T12:35:28;4.20;;;1.60;;
76818;SDS011;65772;51.096;17.006;2023-03-23T12:38:11;3.30;;;1.50;;
76818;SDS011;65772;51.096;17.006;2023-03-23T12:40:55;3.20;;;1.40;;
76818;SDS011;65772;51.096;17.006;2023-03-23T12:43:33;3.30;;;1.60;;
76818;SDS011;65772;51.096;17.006;2023-03-23T12:46:12;3.10;;;1.40;;
76818;SDS011;65772;51.096;17.006;2023-03-23T12:48:51;3.00;;;1.60;;
76818;SDS011;65772;51.096;17.006;2023-03-23T12:51:24;3.70;;;1.70;;
76818;SDS011;65772;51.096;17.006;2023-03-23T12:54:01;3.30;;;1.70;;
76818;SDS011;65772;51.096;17.006;2023-03-23T12:56:37;4.50;;;1.60;;
76818;SDS011;65772;51.096;17.006;2023-03-23T12:59:13;4.10;;;1.50;;
76818;SDS011;65772;51.096;17.006;2023-03-23T13:01:48;4.10;;;1.70;;
76818;SDS011;65772;51.096;17.006;2023-03-23T13:04:29;3.60;;;1.80;;
76818;SDS011;65772;51.096;17.006;2023-03-23T13:07:05;3.40;;;1.60;;
76818;SDS011;65772;51.096;17.006;2023-03-23T13:09:44;3.60;;;1.70;;
76818;SDS011;65772;51.096;17.006;2023-03-23T13:12:20;3.50;;;1.60;;
76818;SDS011;65772;51.096;17.006;2023-03-23T13:14:53;5.40;;;1.80;;
76818;SDS011;65772;51.096;17.006;2023-03-23T13:17:31;4.80;;;1.80;;
76818;SDS011;65772;51.096;17.006;2023-03-23T13:23:17;7.20;;;2.10;;
76818;SDS011;65772;51.096;17.006;2023-03-23T13:25:54;5.10;;;2.00;;
76818;SDS011;65772;51.096;17.006;2023-03-23T13:28:28;4.90;;;1.90;;
76818;SDS011;65772;51.096;17.006;2023-03-23T13:31:01;4.20;;;2.30;;
76818;SDS011;65772;51.096;17.006;2023-03-23T13:33:43;4.60;;;2.00;;
76818;SDS011;65772;51.096;17.006;2023-03-23T13:36:18;3.90;;;1.90;;
76818;SDS011;65772;51.096;17.006;2023-03-23T13:38:52;4.70;;;2.10;;
76818;SDS011;65772;51.096;17.006;2023-03-23T13:41:25;4.20;;;1.90;;
76818;SDS011;65772;51.096;17.006;2023-03-23T13:44:07;4.00;;;2.10;;
76818;SDS011;65772;51.096;17.006;2023-03-23T13:46:55;5.20;;;2.00;;
76818;SDS011;65772;51.096;17.006;2023-03-23T13:49:33;3.60;;;1.90;;
76818;SDS011;65772;51.096;17.006;2023-03-23T13:52:17;7.30;;;2.30;;
76818;SDS011;65772;51.096;17.006;2023-03-23T13:54:50;4.30;;;2.00;;
76818;SDS011;65772;51.096;17.006;2023-03-23T13:57:37;4.60;;;2.10;;
76818;SDS011;65772;51.096;17.006;2023-03-23T14:03:18;4.70;;;2.00;;
76818;SDS011;65772;51.096;17.006;2023-03-23T14:06:00;4.20;;;2.00;;
76818;SDS011;65772;51.096;17.006;2023-03-23T14:08:39;3.70;;;2.00;;
76818;SDS011;65772;51.096;17.006;2023-03-23T14:11:12;3.40;;;2.00;;
76818;SDS011;65772;51.096;17.006;2023-03-23T14:13:47;4.40;;;2.10;;
76818;SDS011;65772;51.096;17.006;2023-03-23T14:16:31;4.00;;;2.10;;
76818;SDS011;65772;51.096;17.006;2023-03-23T14:19:12;7.30;;;2.60;;
76818;SDS011;65772;51.096;17.006;2023-03-23T14:21:50;4.70;;;1.90;;
76818;SDS011;65772;51.096;17.006;2023-03-23T14:24:23;4.70;;;2.40;;
76818;SDS011;65772;51.096;17.006;2023-03-23T14:27:01;4.90;;;2.40;;
76818;SDS011;65772;51.096;17.006;2023-03-23T14:29:37;4.60;;;2.40;;
76818;SDS011;65772;51.096;17.006;2023-03-23T14:32:07;4.80;;;2.00;;
76818;SDS011;65772;51.096;17.006;2023-03-23T14:34:40;7.40;;;3.00;;
76818;SDS011;65772;51.096;17.006;2023-03-23T14:37:10;5.00;;;2.50;;
76818;SDS011;65772;51.096;17.006;2023-03-23T14:39:43;4.20;;;2.20;;
76818;SDS011;65772;51.096;17.006;2023-03-23T14:42:16;5.10;;;3.20;;
76818;SDS011;65772;51.096;17.006;2023-03-23T14:44:48;4.70;;;2.30;;
76818;SDS011;65772;51.096;17.006;2023-03-23T14:47:19;3.90;;;2.00;;
76818;SDS011;65772;51.096;17.006;2023-03-23T14:49:55;4.80;;;2.50;;
76818;SDS011;65772;51.096;17.006;2023-03-23T14:55:07;4.60;;;1.80;;
76818;SDS011;65772;51.096;17.006;2023-03-23T14:57:41;5.60;;;2.00;;
76818;SDS011;65772;51.096;17.006;2023-03-23T15:00:14;5.70;;;2.10;;
76818;SDS011;65772;51.096;17.006;2023-03-23T15:02:49;4.60;;;2.10;;
76818;SDS011;65772;51.096;17.006;2023-03-23T15:05:21;4.40;;;2.20;;
76818;SDS011;65772;51.096;17.006;2023-03-23T15:07:59;4.20;;;2.10;;
76818;SDS011;65772;51.096;17.006;2023-03-23T15:10:32;4.80;;;2.30;;
76818;SDS011;65772;51.096;17.006;2023-03-23T15:13:02;4.40;;;2.10;;
76818;SDS011;65772;51.096;17.006;2023-03-23T15:15:32;4.80;;;2.20;;
76818;SDS011;65772;51.096;17.006;2023-03-23T15:18:03;5.40;;;2.60;;
76818;SDS011;65772;51.096;17.006;2023-03-23T15:20:48;3.50;;;1.90;;
76818;SDS011;65772;51.096;17.006;2023-03-23T15:23:21;4.90;;;2.20;;
76818;SDS011;65772;51.096;17.006;2023-03-23T15:25:54;4.90;;;2.40;;
76818;SDS011;65772;51.096;17.006;2023-03-23T15:28:29;4.20;;;2.10;;
76818;SDS011;65772;51.096;17.006;2023-03-23T15:31:00;5.20;;;2.30;;
76818;SDS011;65772;51.096;17.006;2023-03-23T15:33:36;5.00;;;2.40;;
76818;SDS011;65772;51.096;17.006;2023-03-23T15:36:07;4.90;;;2.20;;
76818;SDS011;65772;51.096;17.006;2023-03-23T15:38:44;4.60;;;2.10;;
76818;SDS011;65772;51.096;17.006;2023-03-23T15:41:22;4.50;;;2.40;;
76818;SDS011;65772;51.096;17.006;2023-03-23T15:43:53;5.40;;;2.40;;
76818;SDS011;65772;51.096;17.006;2023-03-23T15:46:26;5.50;;;2.50;;